Главная страница
METAR-TAF:

METAR-TAF

Аэропорты :

Бургас, Болгария

широта: 42-29N, долгота: 027-29E, высота над уровнем моря: 16 м

Текущие метеонаблюдения

Эта сводка был подготовлена 26 минут назад, в 10:00 UTC
Ветер 11 Узел от восточно-юго-восточный
Температура 12°C
Влажность 58%
Давление 1023 hPa
Видимость 10 км и более
Нет облачности ниже 1500 м, и нет кучево-дождевой облачности

METAR: LBBG 231000Z 12011KT CAVOK 12/04 Q1023 NOSIG

Время: 12:26 (10:26 UTC)

Прогноз

Эта сводка был подготовлена 5 часа и 26 минут назад, в 05:00 UTC
Прогноз действительный с 23-го 06 UTC до 24-го 06 UTC
Ветер 4 Узел переменных направлений
Видимость: 7000 м
изменения
С 23-го 08 UTC до 23-го 10 UTC
Ветер 14 Узел от восточно-юго-восточный
Видимость 10 км и более
Нет облачности ниже 1500 м, и нет кучево-дождевой облачности

TAF: LBBG 230500Z 2306/2406 VRB04KT 7000 NSC BECMG 2308/2310 11014KT CAVOK

Метеонаблюдения и прогнозы для более 4000 аэропортов (сводки METAR и TAF).

Имеющиеся станции представлены на карте желтыми и красными точками.

Чтобы увидеть название станции, наведите на нее мышь.

Затем щелкните, чтобы увидеть метеонаблюдения и метеопрогнозы.

Управление картой: чтобы увеличить масштаб, щелкните зеленые кнопки с черным крестиком; чтобы уменьшить масштаб, щелкните зеленую кнопку с тире; для просмотра соседних карт щелкайте зеленые стрелки.


METAR-TAF: